Ontario, WI (54651)

10:48 PM CDT on August 30, 2014 (GMT -0500)
KWIONTAR2 | Change Station
CLOSE
Current Station
Personal Weather Station
Location: Ontario, WI
Elevation: 938 ft
Nearby Weather Stations

Elev 938 ft 43.72 °N, 90.59 °W | Updated 7 seconds ago

Partly Cloudy
Partly Cloudy
65.2 °F
Feels Like 65.2 °F
N
0.0
Wind Variable Wind from South
Gusts 0.0 mph

Today
High -- | Low -- °F
--% Chance of Precip.
Yesterday
High -- | Low -- °F
Precip. -- in
6:23 AM 7:41 PM
Waxing Crescent, 27% visible
Pressure 29.91 in
Visibility 10.0 miles
Clouds Overcast 2300 ft
Dew Point 40 °F
Humidity 39%
Rainfall 0.25 in
Snow Depth Not available.
UV 0 out of 12
Pollen 2.90 out of 12
Air Quality Not available.
Flu Activity Not available.
METAR KCMY 310335Z AUTO 00000KT 10SM OVC023 18/17 A2991 RMK AO2 T01800166

More Conditions Fewer Conditions

Pressure 29.91 in
Visibility 10.0 miles
Clouds Overcast 2300 ft
Dew Point 40 °F
Humidity 39%
Rainfall 0.25 in
Snow Depth Not available.
UV 0 out of 12
Pollen 2.90 out of 12
Air Quality Not available.
Flu Activity Not available.
METAR KCMY 310335Z AUTO 00000KT 10SM OVC023 18/17 A2991 RMK AO2 T01800166

More Conditions Fewer Conditions

10-Day Weather Forecast

Almanac

Astronomy

Aug. 30, 2014 Rise Set
Actual Time 6:23 AM CDT 7:41 PM CDT
Civil Twilight 5:53 AM CDT 8:11 PM CDT
Nautical Twilight 5:18 AM CDT 8:46 PM CDT
Astronomical Twilight 4:40 AM CDT 9:24 PM CDT
Moon 11:21 AM CDT (8/30) 10:04 PM CDT (8/30)
Length of Visible Light 14h 17m
Length of Day
13h 17m
Tomorrow will be 2m 52s shorter.
Waxing Crescent, 27% of the Moon is Illuminated
Today
Waxing Crescent
Sep 2
First Quarter
Sep 8
Full
Sep 15
Last Quarter
Sep 24
New

Today's Extremes

State Highs State Lows

Community

WunderPhotos

Upload Photos

1,748,773 photos uploaded!

Nearby

Snow Depth

Station Depth Elevation
No new snow has been reported.

Earthquake Activity

City Distance Mag. Time & Date
No recent earthquake activity has been reported nearby.
Minimum magnitude displayed is 2.5.

Coastal Water Temperatures

Place Temperature
No Stations Reporting

Nearby Weather Stations